Time;durP1;ratioP1;P1;durP2;ratioP2;P2;SDS_P1;SDS_P2;PMS_P1;PMS_P2;Temp;Humidity;BMP_temperature;BMP_pressure;BME280_temperature;BME280_humidity;BME280_pressure;Samples;Min_cycle;Max_cycle;Signal;HPM_P1;HPM_P2
2022/11/27 00:01:15;;;;;;;21.08;6.50;;;6.70;99.90;;;;;;4822774;29;20042;-87
2022/11/27 00:03:41;;;;;;;19.30;5.57;;;6.60;99.90;;;;;;4820461;29;20045;-87
2022/11/27 00:06:10;;;;;;;14.02;4.97;;;6.60;99.90;;;;;;4819490;29;20048;-87
2022/11/27 00:08:36;;;;;;;18.60;5.40;;;6.60;99.90;;;;;;4824704;29;20045;-86
2022/11/27 00:11:10;;;;;;;15.02;5.32;;;6.60;99.90;;;;;;4821989;29;20061;-85
2022/11/27 00:13:36;;;;;;;13.02;5.13;;;6.60;99.90;;;;;;4823610;29;20397;-88
2022/11/27 00:16:03;;;;;;;15.88;6.20;;;6.60;99.90;;;;;;4823230;29;20046;-86
2022/11/27 00:18:28;;;;;;;14.05;4.78;;;6.60;99.90;;;;;;4822480;29;20057;-87
2022/11/27 00:20:54;;;;;;;15.40;5.40;;;6.60;99.90;;;;;;4821827;29;20054;-87
2022/11/27 00:23:19;;;;;;;19.13;4.97;;;6.40;99.90;;;;;;4802260;29;20030;-87
2022/11/27 00:25:56;;;;;;;16.75;5.57;;;6.60;99.90;;;;;;4804460;29;20048;-87
2022/11/27 00:28:21;;;;;;;16.80;6.10;;;6.60;99.90;;;;;;4822636;29;20558;-87
2022/11/27 00:30:47;;;;;;;18.58;5.63;;;6.60;99.90;;;;;;4823081;29;20132;-86
2022/11/27 00:33:12;;;;;;;17.48;4.35;;;6.60;99.90;;;;;;4820452;29;20087;-87
2022/11/27 00:35:38;;;;;;;16.65;4.82;;;6.50;99.90;;;;;;4821686;29;20077;-87
2022/11/27 00:38:05;;;;;;;15.10;5.60;;;6.50;99.90;;;;;;4822465;29;20395;-87
2022/11/27 00:40:31;;;;;;;16.08;5.28;;;6.50;99.90;;;;;;4804090;29;20045;-87
2022/11/27 00:42:56;;;;;;;18.50;5.53;;;6.50;99.90;;;;;;4822037;29;20046;-87
2022/11/27 00:45:22;;;;;;;15.02;5.28;;;6.40;99.90;;;;;;4821991;29;20509;-87
2022/11/27 00:47:50;;;;;;;12.32;4.97;;;6.40;99.90;;;;;;4837756;29;20044;-87
2022/11/27 00:50:16;;;;;;;15.02;5.20;;;6.50;99.90;;;;;;4836270;29;20085;-87
2022/11/27 00:52:42;;;;;;;16.23;4.95;;;6.40;99.90;;;;;;4822511;29;20198;-87
2022/11/27 00:55:08;;;;;;;14.82;5.90;;;6.40;99.90;;;;;;4822366;29;20079;-87
2022/11/27 00:57:33;;;;;;;12.55;4.57;;;6.40;99.90;;;;;;4817685;29;20042;-87
2022/11/27 00:59:59;;;;;;;22.50;4.90;;;6.40;99.90;;;;;;4823308;29;20038;-87
2022/11/27 01:02:25;;;;;;;16.63;5.28;;;6.30;99.90;;;;;;4801121;29;20574;-87
2022/11/27 01:04:50;;;;;;;15.55;4.95;;;6.30;99.90;;;;;;4821504;29;20034;-86
2022/11/27 01:07:16;;;;;;;14.65;5.28;;;6.30;99.90;;;;;;4822866;29;20046;-87
2022/11/27 01:09:41;;;;;;;15.25;5.18;;;6.30;99.90;;;;;;4821599;29;20038;-87
2022/11/27 01:12:07;;;;;;;12.30;5.20;;;6.20;99.90;;;;;;4823162;29;20053;-87
2022/11/27 01:14:33;;;;;;;19.33;5.65;;;6.20;99.90;;;;;;4819441;29;20379;-87
2022/11/27 01:16:59;;;;;;;13.38;5.00;;;6.30;99.90;;;;;;4823608;29;20054;-86
2022/11/27 01:19:25;;;;;;;15.57;6.03;;;6.20;99.90;;;;;;4835982;29;20033;-87
2022/11/27 01:21:50;;;;;;;15.73;5.60;;;6.10;99.90;;;;;;4799774;29;20049;-86
2022/11/27 01:24:16;;;;;;;17.50;5.53;;;6.20;99.90;;;;;;4801387;29;20897;-87
2022/11/27 01:26:42;;;;;;;13.52;5.18;;;6.20;99.90;;;;;;4822386;29;20042;-87
2022/11/27 01:29:08;;;;;;;18.42;5.30;;;6.10;99.90;;;;;;4825844;29;20145;-87
2022/11/27 01:31:34;;;;;;;13.63;4.75;;;6.10;99.90;;;;;;4825799;29;20062;-87
2022/11/27 01:34:10;;;;;;;14.32;5.60;;;6.10;99.90;;;;;;4802990;29;20049;-88
2022/11/27 01:36:35;;;;;;;19.35;5.38;;;6.10;99.90;;;;;;4824528;29;20091;-87
2022/11/27 01:39:02;;;;;;;13.25;5.88;;;6.00;99.90;;;;;;4807340;29;20046;-86
2022/11/27 01:41:36;;;;;;;18.27;6.07;;;6.00;99.90;;;;;;4819722;29;20068;-88
2022/11/27 01:44:23;;;;;;;15.30;5.72;;;6.00;99.90;;;;;;4825080;29;20053;-85
2022/11/27 01:46:55;;;;;;;14.43;5.45;;;6.00;99.90;;;;;;4819688;29;20518;-87
2022/11/27 01:49:47;;;;;;;21.35;6.10;;;5.90;99.90;;;;;;4838973;29;20117;-87
2022/11/27 01:52:17;;;;;;;21.58;5.78;;;6.00;99.90;;;;;;4825610;29;20102;-87
2022/11/27 01:54:55;;;;;;;14.75;5.18;;;6.00;99.90;;;;;;4811269;29;20081;-88
2022/11/27 01:57:30;;;;;;;18.42;6.53;;;6.00;99.90;;;;;;4823580;29;20042;-86
2022/11/27 01:59:58;;;;;;;12.15;4.90;;;6.00;99.90;;;;;;4810410;29;20553;-86
2022/11/27 02:02:24;;;;;;;15.80;6.25;;;6.00;99.90;;;;;;4805345;29;20050;-88
2022/11/27 02:04:50;;;;;;;21.30;5.43;;;5.90;99.90;;;;;;4825521;29;20034;-87
2022/11/27 02:07:15;;;;;;;18.75;5.47;;;6.00;99.90;;;;;;4825428;29;20049;-87
2022/11/27 02:09:41;;;;;;;14.23;5.38;;;5.90;99.90;;;;;;4825552;29;20045;-88
2022/11/27 02:12:24;;;;;;;12.35;5.55;;;5.90;99.90;;;;;;4804168;29;20134;-88
2022/11/27 02:14:55;;;;;;;19.67;6.25;;;5.90;99.90;;;;;;4803870;29;20049;-86
2022/11/27 02:17:43;;;;;;;21.33;7.85;;;5.90;99.90;;;;;;4839240;29;20056;-87
2022/11/27 02:20:34;;;;;;;19.13;6.10;;;5.80;99.90;;;;;;4809554;29;20077;-87
2022/11/27 02:23:44;;;;;;;8.57;4.65;;;5.80;99.90;;;;;;4823775;29;20638;-87
2022/11/27 02:26:30;;;;;;;20.40;6.53;;;5.80;99.90;;;;;;4791913;29;20054;-87
2022/11/27 02:29:02;;;;;;;15.30;6.10;;;5.80;99.90;;;;;;4789983;29;20046;-87
2022/11/27 02:32:02;;;;;;;19.40;5.15;;;5.80;99.90;;;;;;4803543;29;20057;-87
2022/11/27 02:34:31;;;;;;;12.25;5.43;;;5.80;99.90;;;;;;4823263;29;20045;-88
2022/11/27 02:37:09;;;;;;;17.35;5.72;;;5.80;99.90;;;;;;4824167;29;20077;-88
2022/11/27 02:39:44;;;;;;;15.40;6.10;;;5.80;99.90;;;;;;4822964;29;21017;-88
2022/11/27 02:42:19;;;;;;;18.53;6.57;;;5.80;99.90;;;;;;4801376;29;20050;-87
2022/11/27 02:44:52;;;;;;;15.88;5.75;;;5.80;99.90;;;;;;4810907;29;20542;-87
2022/11/27 02:47:19;;;;;;;15.57;5.97;;;5.80;99.90;;;;;;4821315;29;20168;-87
2022/11/27 02:49:47;;;;;;;17.23;7.00;;;5.80;99.90;;;;;;4805642;29;20552;-88
2022/11/27 02:52:17;;;;;;;20.85;6.53;;;5.70;99.90;;;;;;4824715;29;20699;-87
2022/11/27 02:54:46;;;;;;;13.10;5.45;;;5.80;99.90;;;;;;4789249;29;20046;-88
2022/11/27 02:57:14;;;;;;;17.98;5.57;;;5.80;99.90;;;;;;4824654;29;20046;-86
2022/11/27 02:59:42;;;;;;;14.60;5.28;;;5.80;99.90;;;;;;4822247;29;20046;-86
2022/11/27 03:02:14;;;;;;;14.15;5.80;;;5.80;99.90;;;;;;4803614;29;20124;-88
2022/11/27 03:04:48;;;;;;;14.77;4.80;;;5.80;99.90;;;;;;4822940;29;20404;-88
2022/11/27 03:07:21;;;;;;;18.88;5.72;;;5.80;99.90;;;;;;4801123;29;20164;-88
2022/11/27 03:09:53;;;;;;;15.50;5.38;;;5.80;99.90;;;;;;4824162;29;20057;-87
2022/11/27 03:12:19;;;;;;;14.68;5.20;;;5.90;99.90;;;;;;4838320;29;20042;-88
2022/11/27 03:14:46;;;;;;;18.25;7.07;;;5.90;99.90;;;;;;4819289;29;20061;-88
2022/11/27 03:17:29;;;;;;;15.55;5.28;;;5.90;99.90;;;;;;4823719;29;20067;-88
2022/11/27 03:20:11;;;;;;;16.05;4.75;;;5.90;99.90;;;;;;4822767;29;20786;-87
2022/11/27 03:22:37;;;;;;;15.75;4.47;;;5.90;99.90;;;;;;4824335;29;20041;-88
2022/11/27 03:25:02;;;;;;;19.02;5.65;;;6.00;99.90;;;;;;4824162;29;20053;-87
2022/11/27 03:27:37;;;;;;;16.70;4.65;;;5.90;99.90;;;;;;4823682;29;20041;-89
2022/11/27 03:30:09;;;;;;;19.27;5.22;;;5.90;99.90;;;;;;4823101;29;20561;-88
2022/11/27 03:32:35;;;;;;;17.20;5.82;;;5.90;99.90;;;;;;4823655;29;20049;-87
2022/11/27 03:35:01;;;;;;;18.48;5.07;;;5.90;99.90;;;;;;4824025;29;20042;-88
2022/11/27 03:37:27;;;;;;;12.88;5.68;;;5.90;99.90;;;;;;4823061;29;20095;-87
2022/11/27 03:39:53;;;;;;;15.00;4.90;;;5.90;99.90;;;;;;4821566;29;20034;-88
2022/11/27 03:42:37;;;;;;;15.07;4.60;;;5.90;99.90;;;;;;4823158;29;20505;-87
2022/11/27 03:45:05;;;;;;;17.33;4.40;;;5.90;99.90;;;;;;4837213;29;20049;-87
2022/11/27 03:47:34;;;;;;;13.35;4.43;;;5.90;99.90;;;;;;4836579;29;20125;-85
2022/11/27 03:50:08;;;;;;;18.23;4.45;;;5.90;99.90;;;;;;4809206;29;20788;-87
2022/11/27 03:52:59;;;;;;;11.57;4.07;;;5.90;99.90;;;;;;4810103;29;20089;-87
2022/11/27 03:55:40;;;;;;;12.15;4.55;;;5.90;99.90;;;;;;4837165;29;20549;-86
2022/11/27 03:58:14;;;;;;;12.93;4.53;;;6.00;99.90;;;;;;4837519;29;20046;-87
2022/11/27 04:00:42;;;;;;;11.98;4.13;;;5.90;99.90;;;;;;4824094;29;20038;-87
2022/11/27 04:03:10;;;;;;;18.13;4.82;;;6.00;99.90;;;;;;4822300;29;20034;-89
2022/11/27 04:05:36;;;;;;;11.65;4.28;;;6.00;99.90;;;;;;4823830;29;20034;-88
2022/11/27 04:08:02;;;;;;;12.13;3.85;;;6.00;99.90;;;;;;4822908;29;20065;-87
2022/11/27 04:10:27;;;;;;;10.70;4.90;;;6.00;99.90;;;;;;4802563;29;20069;-85
2022/11/27 04:12:53;;;;;;;14.73;4.28;;;6.00;99.90;;;;;;4808060;29;20144;-88
2022/11/27 04:15:18;;;;;;;14.60;3.95;;;6.00;99.90;;;;;;4824203;29;20134;-88
2022/11/27 04:17:44;;;;;;;13.27;4.40;;;6.00;99.90;;;;;;4824096;29;20057;-85
2022/11/27 04:20:13;;;;;;;10.88;3.63;;;6.10;99.90;;;;;;4802423;29;20042;-87
2022/11/27 04:22:39;;;;;;;11.52;3.88;;;6.00;99.90;;;;;;4806738;29;20045;-88
2022/11/27 04:25:05;;;;;;;11.98;3.65;;;6.00;99.90;;;;;;4823664;29;20046;-87
2022/11/27 04:27:31;;;;;;;13.75;3.55;;;6.70;99.90;;;;;;4821116;29;20038;-87
2022/11/27 04:29:56;;;;;;;12.70;3.83;;;6.00;99.90;;;;;;4823153;29;20148;-87
2022/11/27 04:32:22;;;;;;;10.70;3.92;;;6.00;99.90;;;;;;4822466;29;20041;-86
2022/11/27 04:34:47;;;;;;;22.10;4.53;;;6.00;99.90;;;;;;4804216;29;20579;-87
2022/11/27 04:37:13;;;;;;;14.57;4.35;;;6.10;99.90;;;;;;4822670;29;20050;-87
2022/11/27 04:39:38;;;;;;;9.30;3.22;;;6.00;99.90;;;;;;4821955;29;20506;-88
2022/11/27 04:42:04;;;;;;;13.05;4.50;;;6.10;99.90;;;;;;4799101;29;20081;-87
2022/11/27 04:44:30;;;;;;;13.93;3.92;;;6.00;99.90;;;;;;4819199;29;20063;-87
2022/11/27 04:46:55;;;;;;;15.25;4.07;;;6.00;99.90;;;;;;4821569;29;20045;-87
2022/11/27 04:49:21;;;;;;;13.77;4.18;;;6.00;99.90;;;;;;4800179;29;20046;-86
2022/11/27 04:51:46;;;;;;;13.38;4.35;;;6.00;99.90;;;;;;4801708;29;20038;-87
2022/11/27 04:54:12;;;;;;;10.27;3.75;;;6.00;99.90;;;;;;4822712;29;20126;-87
2022/11/27 04:56:37;;;;;;;10.68;3.92;;;6.00;99.90;;;;;;4823343;29;20034;-87
2022/11/27 04:59:04;;;;;;;9.15;3.63;;;6.00;99.90;;;;;;4822636;29;20402;-88
2022/11/27 05:01:29;;;;;;;9.20;3.50;;;6.00;99.90;;;;;;4803353;29;20493;-87
2022/11/27 05:03:55;;;;;;;10.68;3.25;;;6.00;99.90;;;;;;4822192;29;20037;-87
2022/11/27 05:06:21;;;;;;;10.45;3.45;;;6.10;99.90;;;;;;4823195;29;20053;-88
2022/11/27 05:08:47;;;;;;;9.25;3.35;;;6.00;99.90;;;;;;4821887;29;20835;-87
2022/11/27 05:11:18;;;;;;;12.98;3.28;;;6.00;99.90;;;;;;4824900;29;20049;-88
2022/11/27 05:13:44;;;;;;;11.40;3.38;;;5.90;99.90;;;;;;4826184;29;20093;-87
2022/11/27 05:16:09;;;;;;;12.68;3.38;;;6.00;99.90;;;;;;4818618;29;20084;-87
2022/11/27 05:18:35;;;;;;;9.82;3.05;;;6.00;99.90;;;;;;4804291;29;20045;-88
2022/11/27 05:21:04;;;;;;;10.02;3.35;;;5.90;99.90;;;;;;4838420;29;20033;-87
2022/11/27 05:23:31;;;;;;;7.75;3.30;;;6.00;99.90;;;;;;4818298;29;20089;-86
2022/11/27 05:26:05;;;;;;;10.57;3.92;;;6.00;99.90;;;;;;4805027;29;20044;-87
2022/11/27 05:28:31;;;;;;;11.30;3.90;;;6.00;99.90;;;;;;4825513;29;20042;-88
2022/11/27 05:30:56;;;;;;;12.45;3.38;;;5.90;99.90;;;;;;4826508;29;20100;-86
2022/11/27 05:33:22;;;;;;;12.70;3.55;;;6.00;99.90;;;;;;4810794;29;20060;-86
2022/11/27 05:35:47;;;;;;;13.02;3.47;;;5.90;99.90;;;;;;4827585;29;20042;-85
2022/11/27 05:38:13;;;;;;;9.38;3.40;;;6.00;99.90;;;;;;4826629;29;20049;-85
2022/11/27 05:40:38;;;;;;;11.18;3.17;;;5.90;99.90;;;;;;4819329;29;20053;-85
2022/11/27 05:43:04;;;;;;;10.85;3.45;;;5.90;99.90;;;;;;4826447;29;20058;-85
2022/11/27 05:45:30;;;;;;;10.95;3.10;;;6.00;99.90;;;;;;4825907;29;20052;-85
2022/11/27 05:47:55;;;;;;;12.35;3.50;;;6.00;99.90;;;;;;4811955;29;20045;-85
2022/11/27 05:50:24;;;;;;;9.75;3.25;;;5.90;99.90;;;;;;4808426;29;20056;-86
2022/11/27 05:52:50;;;;;;;7.93;3.38;;;6.20;99.90;;;;;;4818162;29;20049;-86
2022/11/27 05:55:16;;;;;;;10.57;3.25;;;6.00;99.90;;;;;;4823365;29;20050;-85
2022/11/27 05:57:41;;;;;;;10.02;3.03;;;5.90;99.90;;;;;;4826062;29;20136;-86
2022/11/27 06:00:07;;;;;;;13.70;3.40;;;5.90;99.90;;;;;;4823754;29;20145;-85
2022/11/27 06:02:33;;;;;;;13.70;4.13;;;5.90;99.90;;;;;;4826674;29;20064;-85
2022/11/27 06:04:59;;;;;;;5.57;2.67;;;6.00;99.90;;;;;;4808548;29;20494;-85
2022/11/27 06:07:33;;;;;;;12.90;3.42;;;6.00;99.90;;;;;;4825143;29;20046;-86
2022/11/27 06:09:59;;;;;;;11.57;3.42;;;6.00;99.90;;;;;;4824924;29;20128;-85
2022/11/27 06:12:24;;;;;;;11.50;3.00;;;6.00;99.90;;;;;;4823822;29;20056;-85
2022/11/27 06:14:51;;;;;;;9.35;3.50;;;6.00;99.90;;;;;;4824493;29;20046;-85
2022/11/27 06:17:16;;;;;;;11.20;3.38;;;6.00;99.90;;;;;;4822841;29;20729;-85
2022/11/27 06:19:42;;;;;;;14.23;3.08;;;5.90;99.90;;;;;;4839750;29;20549;-85
2022/11/27 06:22:08;;;;;;;13.32;4.07;;;6.00;99.90;;;;;;4824086;29;20037;-85
2022/11/27 06:24:33;;;;;;;12.55;3.53;;;6.00;99.90;;;;;;4808398;29;20044;-85
2022/11/27 06:26:59;;;;;;;6.55;3.60;;;6.00;99.90;;;;;;4832875;29;20038;-85
2022/11/27 06:29:24;;;;;;;9.35;3.30;;;6.00;99.90;;;;;;4824743;29;21748;-85
2022/11/27 06:31:50;;;;;;;10.70;2.90;;;6.00;99.90;;;;;;4822959;29;20582;-86
2022/11/27 06:34:15;;;;;;;10.25;3.55;;;6.00;99.90;;;;;;4809311;29;20129;-85
2022/11/27 06:36:41;;;;;;;9.93;3.60;;;6.00;99.90;;;;;;4825298;29;20505;-88
2022/11/27 06:39:08;;;;;;;6.60;3.17;;;6.00;99.90;;;;;;4821769;29;20537;-88
2022/11/27 06:41:34;;;;;;;12.75;4.38;;;6.00;99.90;;;;;;4839169;29;20599;-84
2022/11/27 06:44:00;;;;;;;10.90;2.85;;;6.00;99.90;;;;;;4822157;29;20116;-88
2022/11/27 06:46:27;;;;;;;6.97;2.80;;;6.00;99.90;;;;;;4825435;29;20521;-85
2022/11/27 06:48:53;;;;;;;8.70;3.13;;;6.10;99.90;;;;;;4825249;29;20046;-85
2022/11/27 06:51:39;;;;;;;7.18;2.80;;;6.00;99.90;;;;;;4824986;29;20096;-85
2022/11/27 06:54:04;;;;;;;9.70;3.78;;;6.00;99.90;;;;;;4824263;29;20073;-85
2022/11/27 06:56:30;;;;;;;12.63;4.15;;;6.10;99.90;;;;;;4824055;29;20045;-85
2022/11/27 06:59:01;;;;;;;13.10;3.45;;;6.00;99.90;;;;;;4811040;29;20045;-85
2022/11/27 07:01:28;;;;;;;11.25;3.40;;;6.00;99.90;;;;;;4835630;29;20042;-85
2022/11/27 07:03:55;;;;;;;6.53;2.80;;;6.00;99.90;;;;;;4828804;29;20112;-87
2022/11/27 07:06:23;;;;;;;12.50;3.88;;;6.00;99.90;;;;;;4823878;29;20536;-85
2022/11/27 07:08:48;;;;;;;10.75;3.70;;;6.00;99.90;;;;;;4823837;29;20121;-86
2022/11/27 07:11:18;;;;;;;10.68;3.60;;;6.00;99.90;;;;;;4835957;29;20561;-86
2022/11/27 07:13:45;;;;;;;9.27;4.05;;;6.00;99.90;;;;;;4824287;29;20050;-87
2022/11/27 07:16:12;;;;;;;7.72;3.05;;;6.00;99.90;;;;;;4822844;29;20049;-86
2022/11/27 07:18:43;;;;;;;7.80;3.60;;;6.00;99.90;;;;;;4822793;29;20087;-87
2022/11/27 07:21:10;;;;;;;12.43;3.92;;;6.00;99.90;;;;;;4808598;29;20513;-85
2022/11/27 07:23:39;;;;;;;8.88;4.13;;;6.00;99.90;;;;;;4821079;29;20033;-85
2022/11/27 07:26:11;;;;;;;12.27;3.95;;;6.10;99.90;;;;;;4822506;29;20042;-86
2022/11/27 07:28:37;;;;;;;13.18;5.03;;;6.00;99.90;;;;;;4825724;29;20038;-85
2022/11/27 07:31:03;;;;;;;9.43;3.75;;;6.00;99.90;;;;;;4825112;29;20108;-86
2022/11/27 07:33:58;;;;;;;9.75;3.90;;;6.10;99.90;;;;;;4827173;29;20053;-88
2022/11/27 07:36:28;;;;;;;9.75;4.45;;;6.00;99.90;;;;;;4812965;29;20128;-87
2022/11/27 07:39:03;;;;;;;9.52;4.32;;;6.10;99.90;;;;;;4825505;29;20060;-86
2022/11/27 07:41:28;;;;;;;8.85;4.47;;;6.10;99.90;;;;;;4812668;29;20097;-85
2022/11/27 07:43:54;;;;;;;10.80;4.63;;;6.10;99.90;;;;;;4807203;29;20252;-85
2022/11/27 07:50:23;;;;;;;10.13;4.45;;;6.10;99.90;;;;;;4842401;29;20504;-88
2022/11/27 07:57:18;;;;;;;11.20;4.72;;;6.10;99.90;;;;;;4840802;29;20056;-90
2022/11/27 08:00:20;;;;;;;12.10;4.85;;;6.10;99.90;;;;;;4841891;29;20050;-87
2022/11/27 08:03:00;;;;;;;10.20;5.05;;;6.10;99.90;;;;;;4814000;29;20049;-86
2022/11/27 08:05:26;;;;;;;10.65;4.35;;;6.10;99.90;;;;;;4822905;29;20079;-84
2022/11/27 08:08:42;;;;;;;10.43;5.22;;;6.10;99.90;;;;;;4838793;29;20073;-87
2022/11/27 08:11:31;;;;;;;12.45;5.50;;;6.10;99.90;;;;;;4825074;29;20049;-87
2022/11/27 08:14:18;;;;;;;11.80;5.22;;;6.10;99.90;;;;;;4821048;29;20122;-86
2022/11/27 08:16:43;;;;;;;10.23;4.60;;;6.10;99.90;;;;;;4820050;29;20053;-85
2022/11/27 08:19:15;;;;;;;11.90;5.03;;;6.10;99.90;;;;;;4834934;29;20046;-86
2022/11/27 08:21:44;;;;;;;11.20;4.60;;;6.10;99.90;;;;;;4836615;29;20166;-88
2022/11/27 08:24:09;;;;;;;8.95;4.45;;;6.20;99.90;;;;;;4821852;29;20046;-85
2022/11/27 08:26:37;;;;;;;8.13;5.00;;;6.10;99.90;;;;;;4807943;29;20034;-87
2022/11/27 08:30:05;;;;;;;12.43;6.18;;;6.20;99.90;;;;;;4765387;30;20046;-87
2022/11/27 08:32:31;;;;;;;15.43;5.68;;;6.10;99.90;;;;;;4764929;30;20047;-87
2022/11/27 08:35:01;;;;;;;14.77;5.88;;;6.20;99.90;;;;;;4827986;29;20063;-86
2022/11/27 08:37:28;;;;;;;15.63;6.25;;;6.20;99.90;;;;;;4819072;29;20129;-85
2022/11/27 08:39:54;;;;;;;9.38;4.90;;;6.20;99.90;;;;;;4823789;29;20061;-88
2022/11/27 08:42:30;;;;;;;13.13;5.80;;;6.20;99.90;;;;;;4839568;29;20513;-85
2022/11/27 08:44:56;;;;;;;10.60;5.63;;;6.20;99.90;;;;;;4820073;29;20052;-87
2022/11/27 08:47:31;;;;;;;13.30;6.07;;;7.10;99.90;;;;;;4805267;29;20046;-86
2022/11/27 08:49:58;;;;;;;12.10;5.70;;;6.20;99.90;;;;;;4834590;29;20049;-85
2022/11/27 08:52:23;;;;;;;9.35;5.38;;;6.30;99.90;;;;;;4820953;29;20042;-84
2022/11/27 08:54:51;;;;;;;12.50;6.45;;;6.30;99.90;;;;;;4818589;29;20069;-85
2022/11/27 08:57:18;;;;;;;13.50;5.85;;;6.20;99.90;;;;;;4819798;29;20106;-85
2022/11/27 08:59:45;;;;;;;12.73;6.25;;;6.20;99.90;;;;;;4789687;29;20069;-84
2022/11/27 09:02:12;;;;;;;14.27;6.15;;;6.30;99.90;;;;;;4819295;29;20120;-84
2022/11/27 09:04:37;;;;;;;18.08;6.28;;;6.30;99.90;;;;;;4821140;29;20038;-84
2022/11/27 09:07:03;;;;;;;11.18;5.88;;;6.30;99.90;;;;;;4821999;29;20152;-84
2022/11/27 09:09:29;;;;;;;11.52;6.07;;;6.30;99.90;;;;;;4823026;29;20038;-86
2022/11/27 09:11:54;;;;;;;10.20;6.07;;;6.30;99.90;;;;;;4821284;29;20048;-84
2022/11/27 09:14:26;;;;;;;11.20;5.78;;;6.40;99.90;;;;;;4820420;29;20077;-85
2022/11/27 09:16:52;;;;;;;14.80;7.00;;;6.30;99.90;;;;;;4825676;29;20440;-85
2022/11/27 09:19:27;;;;;;;15.70;6.63;;;6.30;99.90;;;;;;4823905;29;20191;-86
2022/11/27 09:21:55;;;;;;;14.02;7.05;;;6.40;99.90;;;;;;4824178;29;20085;-85
2022/11/27 09:24:37;;;;;;;13.52;6.53;;;6.40;99.90;;;;;;4823209;29;20050;-84
2022/11/27 09:27:03;;;;;;;13.25;7.03;;;6.40;99.90;;;;;;4824384;29;20101;-85
2022/11/27 09:29:29;;;;;;;9.60;6.10;;;6.40;99.90;;;;;;4823379;29;20041;-84
2022/11/27 09:32:05;;;;;;;15.48;7.57;;;6.40;99.90;;;;;;4815110;29;20516;-88
2022/11/27 09:34:31;;;;;;;12.18;5.93;;;6.30;99.90;;;;;;4825655;29;20038;-85
2022/11/27 09:36:57;;;;;;;10.93;6.47;;;6.30;99.90;;;;;;4824763;29;20405;-85
2022/11/27 09:39:24;;;;;;;12.85;6.72;;;6.30;99.90;;;;;;4806795;29;20034;-85
2022/11/27 09:42:03;;;;;;;10.68;6.45;;;6.40;99.90;;;;;;4824530;29;20080;-84
2022/11/27 09:44:38;;;;;;;10.65;6.15;;;6.30;99.90;;;;;;4824922;29;20121;-83
2022/11/27 09:47:33;;;;;;;13.18;6.80;;;6.40;99.90;;;;;;4806915;29;20038;-88
2022/11/27 09:50:50;;;;;;;13.25;6.10;;;6.40;99.90;;;;;;4824737;29;20038;-88
2022/11/27 09:53:24;;;;;;;13.50;7.22;;;6.30;99.90;;;;;;4755471;29;20111;-88
2022/11/27 09:55:53;;;;;;;18.52;7.72;;;6.40;99.90;;;;;;4820559;29;20050;-88
2022/11/27 09:58:28;;;;;;;13.38;7.45;;;6.70;99.90;;;;;;4824173;29;20041;-87
2022/11/27 10:00:53;;;;;;;18.77;8.10;;;6.30;99.90;;;;;;4827948;29;20396;-87
2022/11/27 10:03:27;;;;;;;15.18;7.45;;;6.30;99.90;;;;;;4825366;29;20038;-88
2022/11/27 10:05:59;;;;;;;14.98;7.70;;;6.30;99.90;;;;;;4826245;29;20098;-87
2022/11/27 10:08:40;;;;;;;10.73;7.40;;;6.30;99.90;;;;;;4826776;29;20050;-87
2022/11/27 10:11:20;;;;;;;12.68;8.15;;;6.30;99.90;;;;;;4822642;29;20084;-87
2022/11/27 10:14:25;;;;;;;13.43;7.40;;;6.30;99.90;;;;;;4839596;29;20045;-87
2022/11/27 10:17:03;;;;;;;16.90;8.20;;;6.40;99.90;;;;;;4791720;29;20066;-88
2022/11/27 10:19:38;;;;;;;12.40;6.90;;;6.30;99.90;;;;;;4825895;29;20045;-87
2022/11/27 10:22:20;;;;;;;15.60;7.40;;;6.30;99.90;;;;;;4829740;29;20038;-88
2022/11/27 10:25:17;;;;;;;15.35;7.65;;;6.40;99.90;;;;;;4817531;29;20498;-86
2022/11/27 10:27:56;;;;;;;14.32;7.40;;;6.40;99.90;;;;;;4811592;29;20086;-85
2022/11/27 10:30:22;;;;;;;16.27;7.85;;;6.40;99.90;;;;;;4824271;29;20568;-87
2022/11/27 10:32:54;;;;;;;14.48;7.47;;;6.30;99.90;;;;;;4821440;29;20202;-87
2022/11/27 10:35:29;;;;;;;16.08;7.60;;;6.60;99.90;;;;;;4824329;29;20061;-86
2022/11/27 10:38:04;;;;;;;15.05;8.38;;;6.40;99.90;;;;;;4822735;29;20583;-87
2022/11/27 10:40:48;;;;;;;17.80;8.05;;;6.40;99.90;;;;;;4825123;29;20470;-87
2022/11/27 10:43:20;;;;;;;13.23;8.32;;;6.40;99.90;;;;;;4821796;29;20053;-87
2022/11/27 10:45:57;;;;;;;16.52;7.82;;;6.40;99.90;;;;;;4813595;29;20437;-87
2022/11/27 10:48:23;;;;;;;14.88;7.60;;;7.00;99.90;;;;;;4835475;29;20112;-87
2022/11/27 10:50:49;;;;;;;18.13;8.25;;;6.40;99.90;;;;;;4824218;29;20076;-87
2022/11/27 10:53:25;;;;;;;14.95;8.30;;;6.40;99.90;;;;;;4824645;29;20041;-86
2022/11/27 10:56:47;;;;;;;18.38;8.40;;;6.40;99.90;;;;;;4822042;29;20099;-87
2022/11/27 10:59:18;;;;;;;25.38;8.57;;;6.40;99.90;;;;;;4817138;29;20522;-85
2022/11/27 11:01:49;;;;;;;14.25;6.82;;;6.40;99.90;;;;;;4835226;29;20042;-85
2022/11/27 11:04:21;;;;;;;25.75;8.10;;;6.40;99.90;;;;;;4807487;29;20140;-84
2022/11/27 11:06:51;;;;;;;19.05;7.68;;;6.50;99.90;;;;;;4804141;29;20141;-85
2022/11/27 11:09:22;;;;;;;18.45;7.47;;;6.40;99.90;;;;;;4823152;29;20046;-84
2022/11/27 11:11:48;;;;;;;13.38;7.10;;;6.40;99.90;;;;;;4808241;29;20046;-85
2022/11/27 11:14:25;;;;;;;16.52;7.95;;;6.40;99.90;;;;;;4823211;29;20095;-85
2022/11/27 11:16:52;;;;;;;15.65;7.18;;;6.50;99.90;;;;;;4803623;29;20046;-84
2022/11/27 11:19:28;;;;;;;14.85;7.78;;;6.40;99.90;;;;;;4806710;29;20042;-85
2022/11/27 11:21:54;;;;;;;10.55;6.10;;;6.50;99.90;;;;;;4802415;29;20075;-84
2022/11/27 11:24:28;;;;;;;11.10;6.47;;;6.50;99.90;;;;;;4808171;29;20916;-86
2022/11/27 11:26:58;;;;;;;12.85;7.05;;;6.50;99.90;;;;;;4824218;29;20042;-83
2022/11/27 11:29:39;;;;;;;15.30;6.90;;;6.60;99.90;;;;;;4837895;29;20110;-83
2022/11/27 11:32:25;;;;;;;11.23;6.45;;;6.50;99.90;;;;;;4820996;29;20085;-85
2022/11/27 11:34:58;;;;;;;11.32;6.70;;;6.60;99.90;;;;;;4820777;29;20045;-85
2022/11/27 11:37:31;;;;;;;10.38;6.40;;;6.60;99.90;;;;;;4820857;29;20417;-85
2022/11/27 11:40:19;;;;;;;15.43;6.95;;;6.60;99.90;;;;;;4823347;29;20639;-85
2022/11/27 11:42:53;;;;;;;13.90;6.18;;;6.60;99.90;;;;;;4823353;29;20049;-86
2022/11/27 11:45:21;;;;;;;9.60;5.80;;;6.70;99.90;;;;;;4810764;29;20409;-85
2022/11/27 11:47:53;;;;;;;18.90;6.10;;;6.70;99.90;;;;;;4808890;29;20064;-85
2022/11/27 11:50:45;;;;;;;11.65;6.63;;;6.60;99.90;;;;;;4815538;29;20053;-86
2022/11/27 11:53:21;;;;;;;9.85;5.82;;;6.70;99.90;;;;;;4826216;29;20142;-86
2022/11/27 11:56:25;;;;;;;13.63;6.85;;;6.70;99.90;;;;;;4802548;29;20455;-85
2022/11/27 12:03:02;;;;;;;10.10;6.00;;;6.80;99.90;;;;;;4840719;29;20113;-88
2022/11/27 12:05:34;;;;;;;14.32;7.00;;;6.80;99.90;;;;;;4814258;29;20046;-86
2022/11/27 12:08:23;;;;;;;12.10;5.57;;;6.80;99.90;;;;;;4821010;29;20046;-86
2022/11/27 12:11:11;;;;;;;13.20;6.35;;;6.80;99.90;;;;;;4822495;29;20045;-86
2022/11/27 12:13:52;;;;;;;12.25;6.35;;;6.80;99.90;;;;;;4840927;29;20137;-86
2022/11/27 12:16:59;;;;;;;9.00;5.93;;;6.90;99.90;;;;;;4823357;29;20062;-85
2022/11/27 12:19:50;;;;;;;11.65;5.78;;;6.80;99.90;;;;;;4817929;29;20062;-85
2022/11/27 12:22:35;;;;;;;8.55;5.88;;;6.80;99.90;;;;;;4821111;29;20058;-85
2022/11/27 12:25:23;;;;;;;8.25;5.43;;;6.90;99.90;;;;;;4840805;29;20410;-86
2022/11/27 12:28:14;;;;;;;8.70;5.10;;;6.80;99.90;;;;;;4803382;29;20124;-86
2022/11/27 12:31:05;;;;;;;8.45;5.72;;;6.80;99.90;;;;;;4822252;29;20041;-85
2022/11/27 12:33:38;;;;;;;10.93;5.63;;;6.90;99.90;;;;;;4821479;29;20050;-87
2022/11/27 12:36:26;;;;;;;12.15;6.18;;;6.90;99.90;;;;;;4804660;29;20566;-88
2022/11/27 12:38:57;;;;;;;10.23;6.28;;;6.90;99.90;;;;;;4822886;29;20065;-86
2022/11/27 12:41:44;;;;;;;9.57;6.72;;;6.90;99.90;;;;;;4824322;29;20041;-86
2022/11/27 12:44:51;;;;;;;11.43;5.70;;;6.90;99.90;;;;;;4829931;29;20054;-86
2022/11/27 12:55:00;;;;;;;11.50;5.80;;;6.90;99.90;;;;;;4835439;29;20048;-88
2022/11/27 12:57:55;;;;;;;12.80;6.03;;;6.90;99.90;;;;;;4807897;29;20066;-88
2022/11/27 13:00:23;;;;;;;10.63;5.68;;;6.90;99.90;;;;;;4803137;29;20074;-87
2022/11/27 13:03:01;;;;;;;11.63;6.07;;;6.90;99.90;;;;;;4808000;29;20038;-87
2022/11/27 13:05:42;;;;;;;12.80;7.00;;;6.90;99.90;;;;;;4833719;29;20072;-88
2022/11/27 13:08:26;;;;;;;13.63;6.22;;;6.90;99.90;;;;;;4820652;29;20505;-88
2022/11/27 13:11:02;;;;;;;11.98;6.03;;;6.90;99.90;;;;;;4806193;29;20488;-88
2022/11/27 13:13:34;;;;;;;10.73;6.18;;;7.80;99.90;;;;;;4819783;29;20046;-87
2022/11/27 13:16:03;;;;;;;10.75;5.95;;;6.90;99.90;;;;;;4819883;29;20053;-87
2022/11/27 13:18:50;;;;;;;12.60;6.03;;;6.90;99.90;;;;;;4803674;29;20062;-88
2022/11/27 13:21:26;;;;;;;13.23;5.90;;;6.90;99.90;;;;;;4839434;29;20038;-87
2022/11/27 13:23:54;;;;;;;13.80;6.20;;;7.00;99.90;;;;;;4825009;29;20050;-87
2022/11/27 13:26:27;;;;;;;12.10;5.47;;;6.90;99.90;;;;;;4807766;29;20064;-85
2022/11/27 13:28:57;;;;;;;11.18;6.20;;;6.80;99.90;;;;;;4822413;29;20042;-84
2022/11/27 13:31:34;;;;;;;8.18;5.40;;;6.80;99.90;;;;;;4822029;29;20057;-84
2022/11/27 13:34:07;;;;;;;7.45;5.32;;;6.90;99.90;;;;;;4807807;29;20086;-84